Time;durP1;ratioP1;P1;durP2;ratioP2;P2;SDS_P1;SDS_P2;PMS_P1;PMS_P2;Temp;Humidity;BMP_temperature;BMP_pressure;BME280_temperature;BME280_humidity;BME280_pressure;Samples;Min_cycle;Max_cycle;Signal;HPM_P1;HPM_P2
2023/02/27 00:09:43;;;;;;;1.40;0.50;;;-4.50;99.90;;;;;;20906198;28;20544;-58
2023/02/27 00:19:44;;;;;;;1.17;0.55;;;-4.40;99.90;;;;;;20904534;28;20037;-58
2023/02/27 00:29:46;;;;;;;0.30;0.20;;;-4.40;99.90;;;;;;20904069;28;20033;-66
2023/02/27 00:39:49;;;;;;;1.63;0.40;;;-4.40;99.90;;;;;;20902191;28;20048;-58
2023/02/27 00:49:50;;;;;;;1.17;0.22;;;-4.30;99.90;;;;;;20913884;28;20041;-58
2023/02/27 00:59:52;;;;;;;0.63;0.30;;;-4.20;99.90;;;;;;20919409;28;20029;-57
2023/02/27 01:09:54;;;;;;;0.55;0.30;;;-4.20;99.90;;;;;;20918443;28;20036;-58
2023/02/27 01:19:56;;;;;;;3.22;0.30;;;-4.30;99.90;;;;;;20916875;28;20032;-59
2023/02/27 01:29:58;;;;;;;0.75;0.30;;;-4.30;99.90;;;;;;20917098;28;20041;-58
2023/02/27 01:40:00;;;;;;;0.70;0.30;;;-4.30;99.90;;;;;;20916656;28;20037;-66
2023/02/27 01:50:01;;;;;;;1.40;0.40;;;-4.40;99.90;;;;;;20915768;28;20098;-59
2023/02/27 02:00:05;;;;;;;1.10;0.50;;;-4.40;99.90;;;;;;20912405;28;20547;-59
2023/02/27 02:10:16;;;;;;;0.90;0.40;;;-4.40;99.90;;;;;;20914088;28;20037;-58
2023/02/27 02:20:33;;;;;;;0.80;0.40;;;-4.30;99.90;;;;;;20912144;28;20111;-58
2023/02/27 02:31:09;;;;;;;0.73;0.30;;;-4.40;99.90;;;;;;20911206;28;20091;-59
2023/02/27 02:41:10;;;;;;;3.55;0.32;;;-4.30;99.90;;;;;;20911262;28;20033;-66
2023/02/27 02:51:14;;;;;;;1.63;0.50;;;-4.30;99.90;;;;;;20909615;28;20044;-58
2023/02/27 03:01:23;;;;;;;0.80;0.30;;;-4.30;99.90;;;;;;20910221;28;20039;-59
2023/02/27 03:11:31;;;;;;;1.00;0.38;;;-4.30;99.90;;;;;;20907869;28;20053;-58
2023/02/27 03:21:45;;;;;;;0.63;0.20;;;-4.30;99.90;;;;;;20908634;28;20547;-59
2023/02/27 03:31:57;;;;;;;0.50;0.30;;;-4.30;99.90;;;;;;20908001;28;20032;-58
2023/02/27 03:42:18;;;;;;;1.00;0.32;;;-4.20;99.90;;;;;;20905720;28;20086;-58
2023/02/27 03:52:43;;;;;;;0.50;0.30;;;-4.10;99.90;;;;;;20903331;28;20049;-58
2023/02/27 04:02:49;;;;;;;0.40;0.20;;;-4.00;99.90;;;;;;20905621;28;20029;-66
2023/02/27 04:13:24;;;;;;;0.60;0.30;;;-4.00;99.90;;;;;;20903871;28;20049;-59
2023/02/27 04:23:36;;;;;;;1.73;0.35;;;-3.90;99.90;;;;;;20903709;28;20086;-66
2023/02/27 04:33:44;;;;;;;1.05;0.50;;;-3.90;99.90;;;;;;20903475;28;20379;-63
2023/02/27 04:43:46;;;;;;;0.60;0.30;;;-3.90;99.90;;;;;;20903413;28;20036;-58
2023/02/27 04:53:55;;;;;;;1.02;0.40;;;-3.90;99.90;;;;;;20903552;28;20075;-59
2023/02/27 05:03:57;;;;;;;0.52;0.20;;;-3.90;99.90;;;;;;20901554;28;20040;-65
2023/02/27 05:14:21;;;;;;;0.60;0.30;;;-3.80;99.90;;;;;;20901067;28;20052;-65
2023/02/27 05:24:25;;;;;;;0.77;0.25;;;-3.60;99.90;;;;;;20901716;28;20398;-66
2023/02/27 05:34:42;;;;;;;2.00;0.28;;;-3.60;99.90;;;;;;20909179;28;20028;-66
2023/02/27 05:44:50;;;;;;;0.63;0.30;;;-3.50;99.90;;;;;;20915077;28;20405;-66
2023/02/27 05:55:15;;;;;;;0.87;0.30;;;-3.50;99.90;;;;;;20916982;28;20061;-66
2023/02/27 06:05:18;;;;;;;0.73;0.30;;;-3.40;99.90;;;;;;20871282;28;20040;-59
2023/02/27 06:15:20;;;;;;;0.70;0.30;;;-3.30;99.90;;;;;;20910704;28;20048;-58
2023/02/27 06:25:22;;;;;;;0.77;0.40;;;-3.20;99.90;;;;;;20912939;28;20041;-58
2023/02/27 06:35:24;;;;;;;0.60;0.28;;;-3.10;99.90;;;;;;20909001;28;20071;-58
2023/02/27 06:45:25;;;;;;;0.90;0.32;;;-3.00;99.90;;;;;;20910584;28;20036;-65
2023/02/27 06:55:27;;;;;;;0.60;0.30;;;-3.00;99.90;;;;;;20909591;28;20033;-57
2023/02/27 07:05:30;;;;;;;0.73;0.20;;;-2.90;99.90;;;;;;20910286;28;20151;-59
2023/02/27 07:15:32;;;;;;;3.35;0.30;;;-2.90;99.90;;;;;;20909010;28;20544;-61
2023/02/27 07:25:34;;;;;;;0.85;0.40;;;-2.70;99.90;;;;;;20890268;28;20033;-59
2023/02/27 07:35:36;;;;;;;0.65;0.20;;;-2.50;99.90;;;;;;20906008;28;20546;-66
2023/02/27 07:45:38;;;;;;;1.17;0.40;;;-2.30;99.90;;;;;;20894091;28;20433;-58
2023/02/27 07:55:40;;;;;;;2.28;0.40;;;-2.10;99.90;;;;;;20889575;28;20091;-58
2023/02/27 08:05:41;;;;;;;0.47;0.25;;;-1.80;99.90;;;;;;20906104;28;20586;-58
2023/02/27 08:15:43;;;;;;;0.68;0.30;;;-1.60;99.90;;;;;;20903459;28;20057;-59
2023/02/27 08:25:45;;;;;;;0.43;0.20;;;-1.40;99.90;;;;;;20904083;28;20090;-55
2023/02/27 08:35:46;;;;;;;0.70;0.30;;;-1.10;99.90;;;;;;20903823;28;20448;-58
2023/02/27 08:45:49;;;;;;;0.70;0.20;;;-0.80;99.90;;;;;;20902393;28;20552;-54
2023/02/27 08:55:51;;;;;;;0.70;0.30;;;-0.70;99.90;;;;;;20903116;28;20037;-55
2023/02/27 09:05:53;;;;;;;0.98;0.50;;;-0.30;99.90;;;;;;20904615;28;20045;-54
2023/02/27 09:15:55;;;;;;;0.50;0.28;;;-0.10;99.90;;;;;;20918717;28;20498;-66
2023/02/27 09:25:56;;;;;;;1.10;0.22;;;0.30;99.90;;;;;;20916922;28;20033;-55
2023/02/27 09:35:58;;;;;;;0.88;0.22;;;0.70;99.90;;;;;;20900349;28;20276;-56
2023/02/27 09:46:01;;;;;;;0.90;0.30;;;1.50;99.90;;;;;;20916712;28;20037;-65
2023/02/27 09:56:19;;;;;;;0.68;0.30;;;1.70;98.10;;;;;;20915167;28;20178;-53
2023/02/27 10:06:23;;;;;;;0.50;0.30;;;2.10;98.70;;;;;;20897181;28;20063;-63
2023/02/27 10:16:26;;;;;;;0.60;0.30;;;3.20;96.20;;;;;;20916068;28;20103;-56
2023/02/27 10:26:32;;;;;;;0.75;0.50;;;4.00;96.10;;;;;;20912758;28;20033;-55
2023/02/27 10:36:34;;;;;;;0.50;0.28;;;3.30;95.00;;;;;;20912372;28;20086;-55
2023/02/27 10:46:38;;;;;;;0.73;0.20;;;3.20;96.90;;;;;;20911815;28;20394;-54
2023/02/27 10:56:43;;;;;;;0.60;0.30;;;3.90;95.10;;;;;;20910020;28;20029;-56
2023/02/27 11:06:51;;;;;;;1.63;0.50;;;4.10;94.10;;;;;;20910270;28;20032;-55
2023/02/27 11:16:56;;;;;;;0.40;0.30;;;4.60;94.20;;;;;;20908046;28;20049;-53
2023/02/27 11:27:05;;;;;;;0.43;0.30;;;5.00;94.40;;;;;;20908338;28;20033;-63
2023/02/27 11:37:22;;;;;;;1.20;0.43;;;5.10;93.80;;;;;;20907523;28;20029;-63
2023/02/27 11:47:33;;;;;;;1.02;0.40;;;4.40;93.30;;;;;;20907049;28;20033;-63
2023/02/27 11:57:40;;;;;;;0.50;0.40;;;3.70;94.00;;;;;;20906676;28;20025;-63
2023/02/27 12:07:54;;;;;;;2.42;1.50;;;3.60;94.10;;;;;;20905266;28;20381;-53
2023/02/27 12:18:21;;;;;;;3.70;1.23;;;3.40;99.00;;;;;;20905051;28;20114;-62
2023/02/27 12:28:38;;;;;;;1.45;1.13;;;3.70;99.80;;;;;;20885936;28;20106;-62
2023/02/27 12:38:40;;;;;;;3.28;1.33;;;3.60;98.60;;;;;;20904027;28;20040;-54
2023/02/27 12:49:06;;;;;;;4.10;1.17;;;3.20;97.10;;;;;;20902860;28;20087;-54
2023/02/27 12:59:25;;;;;;;2.25;1.35;;;2.70;99.10;;;;;;20901899;28;20029;-63
2023/02/27 13:09:49;;;;;;;4.32;1.40;;;3.20;99.90;;;;;;20901197;28;20103;-64
2023/02/27 13:20:01;;;;;;;3.20;1.77;;;4.00;99.90;;;;;;20902616;28;20029;-64
2023/02/27 13:30:02;;;;;;;2.17;1.52;;;3.70;99.00;;;;;;20901786;28;20552;-63
2023/02/27 13:40:27;;;;;;;2.72;1.58;;;3.00;99.90;;;;;;20901276;28;20025;-63
2023/02/27 13:50:28;;;;;;;4.45;1.85;;;2.50;99.90;;;;;;20899966;28;20025;-60
2023/02/27 14:00:33;;;;;;;3.08;1.48;;;2.10;99.90;;;;;;20913887;28;20032;-66
2023/02/27 14:10:36;;;;;;;3.08;1.67;;;2.00;99.90;;;;;;20913011;28;20045;-57
2023/02/27 14:20:40;;;;;;;4.53;1.60;;;2.10;99.90;;;;;;20895910;28;20171;-64
2023/02/27 14:30:50;;;;;;;2.92;2.00;;;2.00;99.90;;;;;;20912989;28;20025;-57
2023/02/27 14:41:01;;;;;;;3.70;1.30;;;1.90;99.90;;;;;;20911427;28;20070;-57
2023/02/27 14:51:04;;;;;;;3.20;1.80;;;1.90;99.90;;;;;;20911597;28;20444;-57
2023/02/27 15:01:08;;;;;;;5.47;1.70;;;1.70;99.90;;;;;;20910806;28;20567;-59
2023/02/27 15:11:15;;;;;;;3.25;2.03;;;1.20;99.90;;;;;;20909248;28;20041;-60
2023/02/27 15:21:20;;;;;;;4.85;2.15;;;1.00;99.90;;;;;;20909290;28;20330;-64
2023/02/27 15:31:25;;;;;;;3.53;2.20;;;0.80;99.90;;;;;;20908468;28;20411;-64
2023/02/27 15:41:27;;;;;;;3.10;2.10;;;0.80;99.90;;;;;;20908065;28;20033;-58
2023/02/27 15:51:29;;;;;;;3.58;2.00;;;0.70;99.90;;;;;;20906773;28;20029;-64
2023/02/27 16:01:33;;;;;;;3.33;2.00;;;0.30;99.90;;;;;;20904291;28;20029;-58
2023/02/27 16:11:36;;;;;;;4.25;2.53;;;0.10;99.90;;;;;;20905975;28;20552;-57
2023/02/27 16:21:38;;;;;;;4.97;2.58;;;0.00;99.90;;;;;;20902630;28;20033;-66
2023/02/27 16:31:46;;;;;;;6.65;2.53;;;-0.30;99.90;;;;;;20913127;28;20078;-60
2023/02/27 16:41:48;;;;;;;5.32;2.70;;;-0.60;99.90;;;;;;20914496;28;20041;-60
2023/02/27 16:51:50;;;;;;;6.55;3.10;;;-0.90;99.90;;;;;;20903184;28;20094;-66
2023/02/27 17:01:52;;;;;;;6.00;3.00;;;-1.00;99.90;;;;;;20903172;28;20032;-67
2023/02/27 17:11:55;;;;;;;5.20;2.80;;;-1.20;99.90;;;;;;20902731;28;20449;-66
2023/02/27 17:21:56;;;;;;;5.80;3.42;;;-1.30;99.90;;;;;;20902048;28;20087;-60
2023/02/27 17:31:58;;;;;;;5.80;3.10;;;-1.40;99.90;;;;;;20911171;28;20555;-59
2023/02/27 17:42:00;;;;;;;5.63;3.50;;;-1.40;99.90;;;;;;20912807;28;20064;-60
2023/02/27 17:52:02;;;;;;;5.10;3.10;;;-1.60;99.90;;;;;;20916040;28;20098;-60
2023/02/27 18:02:03;;;;;;;6.10;3.38;;;-1.60;99.90;;;;;;20915367;28;20091;-60
2023/02/27 18:12:05;;;;;;;6.00;3.35;;;-1.60;99.90;;;;;;20896529;28;20053;-59
2023/02/27 18:22:13;;;;;;;6.95;3.40;;;-1.70;99.90;;;;;;20912648;28;20032;-60
2023/02/27 18:32:16;;;;;;;5.80;3.42;;;-1.80;99.90;;;;;;20911958;28;20106;-59
2023/02/27 18:42:17;;;;;;;7.00;3.33;;;-1.80;99.90;;;;;;20893549;28;20032;-60
2023/02/27 18:52:19;;;;;;;10.02;3.55;;;-1.90;99.90;;;;;;20911615;28;20038;-66
2023/02/27 19:02:21;;;;;;;7.47;3.90;;;-1.90;99.90;;;;;;20910841;28;20029;-60
2023/02/27 19:12:23;;;;;;;7.28;3.88;;;-1.80;99.90;;;;;;20910134;28;20294;-66
2023/02/27 19:22:28;;;;;;;8.82;4.10;;;-1.90;99.90;;;;;;20909714;28;20040;-60
2023/02/27 19:32:30;;;;;;;5.53;3.25;;;-1.90;99.90;;;;;;20908311;28;20033;-59
2023/02/27 19:42:32;;;;;;;7.65;3.65;;;-1.90;99.90;;;;;;20906064;28;20079;-66
2023/02/27 19:52:34;;;;;;;6.28;3.58;;;-1.90;99.90;;;;;;20906476;28;20544;-60
2023/02/27 20:02:39;;;;;;;7.57;3.80;;;-1.90;99.90;;;;;;20905032;28;20037;-67
2023/02/27 20:12:41;;;;;;;7.45;4.20;;;-2.00;99.90;;;;;;20905569;28;20053;-67
2023/02/27 20:22:43;;;;;;;6.22;3.30;;;-2.00;99.90;;;;;;20905235;28;20033;-67
2023/02/27 20:32:45;;;;;;;9.45;4.35;;;-1.90;99.90;;;;;;20904399;28;20037;-60
2023/02/27 20:42:46;;;;;;;5.90;3.70;;;-1.90;99.90;;;;;;20902396;28;20032;-60
2023/02/27 20:52:52;;;;;;;6.93;3.60;;;-1.90;99.90;;;;;;20903186;28;20515;-59
2023/02/27 21:02:54;;;;;;;7.25;4.00;;;-1.90;99.90;;;;;;20906767;28;20036;-59
2023/02/27 21:12:56;;;;;;;8.80;4.40;;;-1.90;99.90;;;;;;20917770;28;20465;-60
2023/02/27 21:23:00;;;;;;;7.32;4.07;;;-1.80;99.90;;;;;;20919023;28;20071;-66
2023/02/27 21:33:02;;;;;;;7.45;4.00;;;-1.80;99.90;;;;;;20917852;28;20032;-65
2023/02/27 21:43:04;;;;;;;8.48;4.60;;;-1.80;99.90;;;;;;20916932;28;20037;-60
2023/02/27 21:53:06;;;;;;;10.05;3.67;;;-1.90;99.90;;;;;;20914948;28;20029;-67
2023/02/27 22:03:08;;;;;;;6.65;3.78;;;-2.00;99.90;;;;;;20915634;28;20033;-59
2023/02/27 22:13:11;;;;;;;7.80;3.97;;;-2.10;99.90;;;;;;20915371;28;20041;-67
2023/02/27 22:23:13;;;;;;;7.05;4.03;;;-2.20;99.90;;;;;;20913121;28;20021;-60
2023/02/27 22:33:16;;;;;;;6.63;3.78;;;-2.10;99.90;;;;;;20912625;28;20473;-59
2023/02/27 22:43:18;;;;;;;8.50;4.60;;;-2.10;99.90;;;;;;20912314;28;20470;-66
2023/02/27 22:53:19;;;;;;;9.40;4.47;;;-2.10;99.90;;;;;;20911596;28;20017;-60
2023/02/27 23:03:21;;;;;;;9.40;4.47;;;-2.10;99.90;;;;;;20912088;28;20063;-66
2023/02/27 23:13:23;;;;;;;9.73;4.75;;;-2.10;99.90;;;;;;20908617;28;20091;-60
2023/02/27 23:23:26;;;;;;;8.70;4.43;;;-2.10;99.90;;;;;;20908706;28;20021;-64
2023/02/27 23:33:29;;;;;;;9.52;5.22;;;-2.10;99.90;;;;;;20903454;28;20032;-64
2023/02/27 23:43:31;;;;;;;9.52;5.28;;;-2.10;99.90;;;;;;20906899;28;20025;-64
2023/02/27 23:53:34;;;;;;;9.55;4.88;;;-2.00;99.90;;;;;;20906787;28;20040;-64
